sensor_id;sensor_type;location;lat;lon;timestamp;pressure;altitude;pressure_sealevel;temperature;humidity
34370;BME280;20635;55.812;37.560;2023-05-19T19:41:21;100479.63;;;22.89;41.40
34370;BME280;20635;55.812;37.560;2023-05-19T19:43:47;100480.44;;;22.90;41.70
34370;BME280;20635;55.812;37.560;2023-05-19T19:46:13;100478.47;;;22.90;41.84
34370;BME280;20635;55.812;37.560;2023-05-19T19:48:38;100485.16;;;22.94;41.97
34370;BME280;20635;55.812;37.560;2023-05-19T19:51:04;100471.16;;;22.94;42.27
34370;BME280;20635;55.812;37.560;2023-05-19T19:53:30;100480.91;;;22.97;42.18
34370;BME280;20635;55.812;37.560;2023-05-19T19:55:59;100485.09;;;22.99;42.67
34370;BME280;20635;55.812;37.560;2023-05-19T19:58:25;100489.53;;;23.00;42.83
34370;BME280;20635;55.812;37.560;2023-05-19T20:00:55;100492.34;;;23.00;42.99
34370;BME280;20635;55.812;37.560;2023-05-19T20:03:20;100492.34;;;23.00;42.82
34370;BME280;20635;55.812;37.560;2023-05-19T20:05:49;100497.63;;;23.02;43.38
34370;BME280;20635;55.812;37.560;2023-05-19T20:08:16;100500.97;;;23.04;43.23
34370;BME280;20635;55.812;37.560;2023-05-19T20:10:42;100497.34;;;23.03;43.36
34370;BME280;20635;55.812;37.560;2023-05-19T20:13:07;100496.19;;;23.04;43.73
34370;BME280;20635;55.812;37.560;2023-05-19T20:15:33;100493.41;;;23.04;43.91
34370;BME280;20635;55.812;37.560;2023-05-19T20:17:59;100490.31;;;23.06;43.96
34370;BME280;20635;55.812;37.560;2023-05-19T20:20:25;100501.47;;;23.06;43.70
34370;BME280;20635;55.812;37.560;2023-05-19T20:22:51;100497.56;;;23.07;43.73
34370;BME280;20635;55.812;37.560;2023-05-19T20:25:16;100498.09;;;23.09;43.91
34370;BME280;20635;55.812;37.560;2023-05-19T20:27:42;100489.72;;;23.09;44.03
34370;BME280;20635;55.812;37.560;2023-05-19T20:30:08;100498.09;;;23.09;44.13
34370;BME280;20635;55.812;37.560;2023-05-19T20:32:34;100501.72;;;23.10;44.13
34370;BME280;20635;55.812;37.560;2023-05-19T20:34:59;100501.13;;;23.13;44.52
34370;BME280;20635;55.812;37.560;2023-05-19T20:37:25;100503.94;;;23.13;44.19
34370;BME280;20635;55.812;37.560;2023-05-19T20:39:51;100515.13;;;23.13;44.26
34370;BME280;20635;55.812;37.560;2023-05-19T20:42:17;100506.44;;;23.14;44.44
34370;BME280;20635;55.812;37.560;2023-05-19T20:44:43;100505.59;;;23.14;44.57
34370;BME280;20635;55.812;37.560;2023-05-19T20:47:08;100511.19;;;23.14;44.88
34370;BME280;20635;55.812;37.560;2023-05-19T20:49:34;100519.56;;;23.14;44.86
34370;BME280;20635;55.812;37.560;2023-05-19T20:52:00;100513.16;;;23.13;44.75
34370;BME280;20635;55.812;37.560;2023-05-19T20:54:26;100504.78;;;23.13;44.95
34370;BME280;20635;55.812;37.560;2023-05-19T20:56:52;100519.56;;;23.14;45.07
34370;BME280;20635;55.812;37.560;2023-05-19T20:59:19;100514.00;;;23.14;45.10
34370;BME280;20635;55.812;37.560;2023-05-19T21:01:45;100515.66;;;23.15;44.97
34370;BME280;20635;55.812;37.560;2023-05-19T21:04:11;100517.59;;;23.14;45.34
34370;BME280;20635;55.812;37.560;2023-05-19T21:06:37;100522.06;;;23.15;45.11
34370;BME280;20635;55.812;37.560;2023-05-19T21:09:03;100526.81;;;23.15;45.39
34370;BME280;20635;55.812;37.560;2023-05-19T21:11:31;100514.50;;;23.16;45.32
34370;BME280;20635;55.812;37.560;2023-05-19T21:13:57;100520.09;;;23.16;45.34
34370;BME280;20635;55.812;37.560;2023-05-19T21:16:25;100518.13;;;23.16;45.53
34370;BME280;20635;55.812;37.560;2023-05-19T21:18:51;100514.50;;;23.16;45.28
34370;BME280;20635;55.812;37.560;2023-05-19T21:21:17;100518.13;;;23.16;45.35
34370;BME280;20635;55.812;37.560;2023-05-19T21:23:43;100519.00;;;23.17;45.45
34370;BME280;20635;55.812;37.560;2023-05-19T21:26:08;100515.34;;;23.16;45.44
34370;BME280;20635;55.812;37.560;2023-05-19T21:28:34;100510.59;;;23.17;45.68
34370;BME280;20635;55.812;37.560;2023-05-19T21:31:00;100516.19;;;23.17;45.62
34370;BME280;20635;55.812;37.560;2023-05-19T21:33:26;100513.41;;;23.17;45.42
34370;BME280;20635;55.812;37.560;2023-05-19T21:35:52;100522.06;;;23.15;45.49
34370;BME280;20635;55.812;37.560;2023-05-19T21:38:17;100517.03;;;23.17;45.70
34370;BME280;20635;55.812;37.560;2023-05-19T21:40:45;100514.50;;;23.16;45.82
34370;BME280;20635;55.812;37.560;2023-05-19T21:43:11;100516.19;;;23.17;45.79
34370;BME280;20635;55.812;37.560;2023-05-19T21:45:37;100525.41;;;23.17;45.67
34370;BME280;20635;55.812;37.560;2023-05-19T21:48:03;100521.78;;;23.17;45.63
34370;BME280;20635;55.812;37.560;2023-05-19T21:50:28;100519.00;;;23.17;45.68
34370;BME280;20635;55.812;37.560;2023-05-19T21:52:55;100520.94;;;23.16;46.04
34370;BME280;20635;55.812;37.560;2023-05-19T21:55:20;100519.00;;;23.17;46.04
34370;BME280;20635;55.812;37.560;2023-05-19T21:57:47;100521.78;;;23.17;45.91
34370;BME280;20635;55.812;37.560;2023-05-19T22:00:13;100504.16;;;23.16;46.06
34370;BME280;20635;55.812;37.560;2023-05-19T22:02:40;100517.84;;;23.18;45.95
34370;BME280;20635;55.812;37.560;2023-05-19T22:05:06;100510.59;;;23.17;46.10
34370;BME280;20635;55.812;37.560;2023-05-19T22:07:32;100508.63;;;23.17;45.89
34370;BME280;20635;55.812;37.560;2023-05-19T22:09:57;100510.28;;;23.18;46.12
34370;BME280;20635;55.812;37.560;2023-05-19T22:12:23;100510.28;;;23.18;46.00
34370;BME280;20635;55.812;37.560;2023-05-19T22:14:49;100511.94;;;23.19;46.23
34370;BME280;20635;55.812;37.560;2023-05-19T22:17:15;100516.72;;;23.19;45.82
34370;BME280;20635;55.812;37.560;2023-05-19T22:19:40;100513.91;;;23.19;46.09
34370;BME280;20635;55.812;37.560;2023-05-19T22:22:06;100513.09;;;23.18;46.17
34370;BME280;20635;55.812;37.560;2023-05-19T22:24:32;100511.13;;;23.19;46.17
34370;BME280;20635;55.812;37.560;2023-05-19T22:26:57;100507.50;;;23.18;45.96
34370;BME280;20635;55.812;37.560;2023-05-19T22:29:23;100517.53;;;23.19;46.12
34370;BME280;20635;55.812;37.560;2023-05-19T22:31:49;100511.94;;;23.19;46.20
34370;BME280;20635;55.812;37.560;2023-05-19T22:34:15;100515.56;;;23.20;46.06
34370;BME280;20635;55.812;37.560;2023-05-19T22:36:40;100513.91;;;23.19;45.99
34370;BME280;20635;55.812;37.560;2023-05-19T22:39:08;100517.84;;;23.18;46.17
34370;BME280;20635;55.812;37.560;2023-05-19T22:41:34;100516.72;;;23.19;46.28
34370;BME280;20635;55.812;37.560;2023-05-19T22:43:59;100513.91;;;23.19;46.35
34370;BME280;20635;55.812;37.560;2023-05-19T22:46:25;100521.16;;;23.20;45.99
34370;BME280;20635;55.812;37.560;2023-05-19T22:48:51;100511.13;;;23.19;46.12
34370;BME280;20635;55.812;37.560;2023-05-19T22:51:17;100511.13;;;23.19;46.27
34370;BME280;20635;55.812;37.560;2023-05-19T22:53:42;100509.16;;;23.19;46.12
34370;BME280;20635;55.812;37.560;2023-05-19T22:56:11;100511.13;;;23.19;46.46
34370;BME280;20635;55.812;37.560;2023-05-19T22:58:36;100508.31;;;23.19;46.26
34370;BME280;20635;55.812;37.560;2023-05-19T23:01:02;100509.16;;;23.19;46.41
34370;BME280;20635;55.812;37.560;2023-05-19T23:03:28;100502.72;;;23.19;46.06
34370;BME280;20635;55.812;37.560;2023-05-19T23:05:53;100500.75;;;23.19;46.47
34370;BME280;20635;55.812;37.560;2023-05-19T23:08:19;100510.00;;;23.20;46.44
34370;BME280;20635;55.812;37.560;2023-05-19T23:10:45;100510.00;;;23.20;46.15
34370;BME280;20635;55.812;37.560;2023-05-19T23:13:11;100504.38;;;23.20;46.16
34370;BME280;20635;55.812;37.560;2023-05-19T23:15:36;100504.38;;;23.20;46.25
34370;BME280;20635;55.812;37.560;2023-05-19T23:18:02;100506.59;;;23.23;46.13
34370;BME280;20635;55.812;37.560;2023-05-19T23:20:33;100499.88;;;23.24;46.30
34370;BME280;20635;55.812;37.560;2023-05-19T23:22:59;100511.59;;;23.26;46.13
34370;BME280;20635;55.812;37.560;2023-05-19T23:25:25;100498.16;;;23.28;46.39
34370;BME280;20635;55.812;37.560;2023-05-19T23:27:51;100498.97;;;23.28;46.14
34370;BME280;20635;55.812;37.560;2023-05-19T23:30:16;100497.00;;;23.29;46.09
34370;BME280;20635;55.812;37.560;2023-05-19T23:32:42;100489.44;;;23.29;46.37
34370;BME280;20635;55.812;37.560;2023-05-19T23:35:09;100499.53;;;23.31;46.18
34370;BME280;20635;55.812;37.560;2023-05-19T23:37:34;100501.19;;;23.32;46.13
34370;BME280;20635;55.812;37.560;2023-05-19T23:40:00;100494.75;;;23.31;46.17
34370;BME280;20635;55.812;37.560;2023-05-19T23:42:26;100489.69;;;23.33;46.45
34370;BME280;20635;55.812;37.560;2023-05-19T23:44:52;100491.66;;;23.33;46.18
34370;BME280;20635;55.812;37.560;2023-05-19T23:47:18;100490.00;;;23.32;46.22
34370;BME280;20635;55.812;37.560;2023-05-19T23:49:43;100481.59;;;23.32;46.52
34370;BME280;20635;55.812;37.560;2023-05-19T23:52:09;100477.97;;;23.31;46.36
34370;BME280;20635;55.812;37.560;2023-05-19T23:54:35;100493.09;;;23.30;46.43
34370;BME280;20635;55.812;37.560;2023-05-19T23:57:01;100477.16;;;23.31;46.56
34370;BME280;20635;55.812;37.560;2023-05-19T23:59:27;100484.72;;;23.30;46.32
